Fifield, Wisconsin
Current Conditions -  °F | °C
As of 3:35 PM on Saturday 22 Nov 2014 (Local Time) from KPBH Reporting Station
Overcast Overcast  
Wind Chill: 27°   Ceiling: 400
Heat Index: 33°   Visibility: 7mi
Dew Point: 32°   Wind: 7mph
Humidity: 96%   Direction: 210°SSW
Pressure: 29.69"   Gusts: NA
Location:  45.88°N, 90.42°W
Report Text: KPBH 222135Z AUTO 21006KT 7SM OVC004 01/00 A2969 RMK AO2 T00051001
Loading
Personal Weather Stations






























Interactive Weather Map New forecast layout! Learn more

10-Day Weather Forecast

Advertisements
Track Severe Weather on mobile